sensor_id;sensor_type;location;lat;lon;timestamp;P1;durP1;ratioP1;P2;durP2;ratioP2
53959;SDS011;39866;48.638;-2.020;2023-03-13T00:00:28;17.33;;;5.55;;
53959;SDS011;39866;48.638;-2.020;2023-03-13T00:02:53;16.90;;;5.22;;
53959;SDS011;39866;48.638;-2.020;2023-03-13T00:05:19;20.42;;;5.50;;
53959;SDS011;39866;48.638;-2.020;2023-03-13T00:07:44;19.13;;;5.60;;
53959;SDS011;39866;48.638;-2.020;2023-03-13T00:10:09;19.95;;;6.00;;
53959;SDS011;39866;48.638;-2.020;2023-03-13T00:12:35;16.00;;;4.95;;
53959;SDS011;39866;48.638;-2.020;2023-03-13T00:15:00;16.15;;;4.75;;
53959;SDS011;39866;48.638;-2.020;2023-03-13T00:17:26;16.38;;;4.82;;
53959;SDS011;39866;48.638;-2.020;2023-03-13T00:19:51;18.92;;;5.28;;
53959;SDS011;39866;48.638;-2.020;2023-03-13T00:22:16;14.80;;;4.40;;
53959;SDS011;39866;48.638;-2.020;2023-03-13T00:24:42;16.58;;;5.05;;
53959;SDS011;39866;48.638;-2.020;2023-03-13T00:27:07;16.65;;;4.63;;
53959;SDS011;39866;48.638;-2.020;2023-03-13T00:29:33;17.00;;;4.82;;
53959;SDS011;39866;48.638;-2.020;2023-03-13T00:31:59;18.02;;;4.93;;
53959;SDS011;39866;48.638;-2.020;2023-03-13T00:34:25;14.45;;;4.72;;
53959;SDS011;39866;48.638;-2.020;2023-03-13T00:36:52;15.18;;;4.38;;
53959;SDS011;39866;48.638;-2.020;2023-03-13T00:39:20;13.57;;;4.32;;
53959;SDS011;39866;48.638;-2.020;2023-03-13T00:41:46;14.48;;;4.57;;
53959;SDS011;39866;48.638;-2.020;2023-03-13T00:44:12;17.08;;;5.13;;
53959;SDS011;39866;48.638;-2.020;2023-03-13T00:46:37;17.48;;;5.07;;
53959;SDS011;39866;48.638;-2.020;2023-03-13T00:49:03;14.65;;;4.50;;
53959;SDS011;39866;48.638;-2.020;2023-03-13T00:51:28;12.93;;;4.35;;
53959;SDS011;39866;48.638;-2.020;2023-03-13T00:53:54;17.40;;;5.10;;
53959;SDS011;39866;48.638;-2.020;2023-03-13T00:56:21;15.93;;;5.38;;
53959;SDS011;39866;48.638;-2.020;2023-03-13T00:58:47;15.13;;;4.47;;
53959;SDS011;39866;48.638;-2.020;2023-03-13T01:01:24;16.63;;;5.50;;
53959;SDS011;39866;48.638;-2.020;2023-03-13T01:03:56;20.27;;;5.15;;
53959;SDS011;39866;48.638;-2.020;2023-03-13T01:06:24;18.77;;;5.25;;
53959;SDS011;39866;48.638;-2.020;2023-03-13T01:08:52;17.38;;;5.45;;
53959;SDS011;39866;48.638;-2.020;2023-03-13T01:11:19;19.77;;;5.20;;
53959;SDS011;39866;48.638;-2.020;2023-03-13T01:13:46;16.58;;;4.72;;
53959;SDS011;39866;48.638;-2.020;2023-03-13T01:16:14;14.80;;;5.07;;
53959;SDS011;39866;48.638;-2.020;2023-03-13T01:18:44;16.50;;;5.43;;
53959;SDS011;39866;48.638;-2.020;2023-03-13T01:21:12;14.30;;;5.00;;
53959;SDS011;39866;48.638;-2.020;2023-03-13T01:23:38;20.92;;;5.07;;
53959;SDS011;39866;48.638;-2.020;2023-03-13T01:26:04;21.58;;;5.68;;
53959;SDS011;39866;48.638;-2.020;2023-03-13T01:28:32;18.55;;;5.55;;
53959;SDS011;39866;48.638;-2.020;2023-03-13T01:30:58;13.25;;;5.13;;
53959;SDS011;39866;48.638;-2.020;2023-03-13T01:33:24;13.68;;;4.93;;
53959;SDS011;39866;48.638;-2.020;2023-03-13T01:35:50;19.75;;;4.90;;
53959;SDS011;39866;48.638;-2.020;2023-03-13T01:38:15;16.17;;;5.10;;
53959;SDS011;39866;48.638;-2.020;2023-03-13T01:40:45;17.00;;;5.35;;
53959;SDS011;39866;48.638;-2.020;2023-03-13T01:43:17;17.23;;;5.32;;
53959;SDS011;39866;48.638;-2.020;2023-03-13T01:51:20;19.05;;;4.70;;
53959;SDS011;39866;48.638;-2.020;2023-03-13T01:53:56;15.63;;;5.38;;
53959;SDS011;39866;48.638;-2.020;2023-03-13T01:56:24;16.35;;;5.63;;
53959;SDS011;39866;48.638;-2.020;2023-03-13T01:59:01;22.35;;;5.65;;
53959;SDS011;39866;48.638;-2.020;2023-03-13T02:01:28;21.23;;;5.25;;
53959;SDS011;39866;48.638;-2.020;2023-03-13T02:03:55;15.85;;;5.35;;
53959;SDS011;39866;48.638;-2.020;2023-03-13T02:06:22;16.42;;;5.40;;
53959;SDS011;39866;48.638;-2.020;2023-03-13T02:08:51;16.00;;;5.05;;
53959;SDS011;39866;48.638;-2.020;2023-03-13T02:11:27;16.75;;;4.35;;
53959;SDS011;39866;48.638;-2.020;2023-03-13T02:14:02;14.65;;;4.53;;
53959;SDS011;39866;48.638;-2.020;2023-03-13T02:16:28;13.27;;;4.03;;
53959;SDS011;39866;48.638;-2.020;2023-03-13T02:18:55;16.00;;;4.60;;
53959;SDS011;39866;48.638;-2.020;2023-03-13T02:21:28;13.55;;;3.88;;
53959;SDS011;39866;48.638;-2.020;2023-03-13T02:24:08;13.00;;;3.97;;
53959;SDS011;39866;48.638;-2.020;2023-03-13T02:26:49;11.65;;;4.00;;
53959;SDS011;39866;48.638;-2.020;2023-03-13T02:29:14;11.35;;;4.07;;
53959;SDS011;39866;48.638;-2.020;2023-03-13T02:31:43;9.02;;;3.60;;
53959;SDS011;39866;48.638;-2.020;2023-03-13T02:34:10;9.88;;;3.70;;
53959;SDS011;39866;48.638;-2.020;2023-03-13T02:36:40;9.27;;;3.20;;
53959;SDS011;39866;48.638;-2.020;2023-03-13T02:39:07;9.02;;;3.05;;
53959;SDS011;39866;48.638;-2.020;2023-03-13T02:41:33;8.57;;;2.88;;
53959;SDS011;39866;48.638;-2.020;2023-03-13T02:43:59;9.73;;;3.45;;
53959;SDS011;39866;48.638;-2.020;2023-03-13T02:46:24;6.50;;;3.20;;
53959;SDS011;39866;48.638;-2.020;2023-03-13T02:48:51;7.18;;;2.83;;
53959;SDS011;39866;48.638;-2.020;2023-03-13T02:51:26;8.10;;;2.75;;
53959;SDS011;39866;48.638;-2.020;2023-03-13T02:53:56;5.78;;;2.80;;
53959;SDS011;39866;48.638;-2.020;2023-03-13T02:56:26;7.38;;;2.78;;
53959;SDS011;39866;48.638;-2.020;2023-03-13T02:58:53;8.02;;;2.88;;
53959;SDS011;39866;48.638;-2.020;2023-03-13T03:01:19;5.57;;;2.58;;
53959;SDS011;39866;48.638;-2.020;2023-03-13T03:03:44;4.75;;;2.33;;
53959;SDS011;39866;48.638;-2.020;2023-03-13T03:06:09;6.22;;;2.45;;
53959;SDS011;39866;48.638;-2.020;2023-03-13T03:08:35;6.57;;;2.10;;
53959;SDS011;39866;48.638;-2.020;2023-03-13T03:11:00;5.88;;;2.22;;
53959;SDS011;39866;48.638;-2.020;2023-03-13T03:13:26;4.82;;;2.25;;
53959;SDS011;39866;48.638;-2.020;2023-03-13T03:15:52;4.55;;;2.13;;
53959;SDS011;39866;48.638;-2.020;2023-03-13T03:18:17;4.63;;;1.90;;
53959;SDS011;39866;48.638;-2.020;2023-03-13T03:20:43;3.53;;;2.00;;
53959;SDS011;39866;48.638;-2.020;2023-03-13T03:23:08;4.03;;;1.85;;
53959;SDS011;39866;48.638;-2.020;2023-03-13T03:25:33;3.78;;;1.70;;
53959;SDS011;39866;48.638;-2.020;2023-03-13T03:27:59;4.05;;;2.15;;
53959;SDS011;39866;48.638;-2.020;2023-03-13T03:30:24;4.18;;;1.80;;
53959;SDS011;39866;48.638;-2.020;2023-03-13T03:32:49;4.95;;;1.70;;
53959;SDS011;39866;48.638;-2.020;2023-03-13T03:35:15;2.88;;;1.95;;
53959;SDS011;39866;48.638;-2.020;2023-03-13T03:37:40;4.40;;;2.10;;
53959;SDS011;39866;48.638;-2.020;2023-03-13T03:40:06;3.75;;;1.50;;
53959;SDS011;39866;48.638;-2.020;2023-03-13T03:42:32;3.03;;;1.73;;
53959;SDS011;39866;48.638;-2.020;2023-03-13T03:44:58;2.28;;;1.48;;
53959;SDS011;39866;48.638;-2.020;2023-03-13T03:47:23;3.67;;;1.83;;
53959;SDS011;39866;48.638;-2.020;2023-03-13T03:49:48;3.88;;;1.60;;
53959;SDS011;39866;48.638;-2.020;2023-03-13T03:52:14;3.65;;;1.70;;
53959;SDS011;39866;48.638;-2.020;2023-03-13T03:54:39;3.88;;;1.60;;
53959;SDS011;39866;48.638;-2.020;2023-03-13T03:57:05;4.43;;;1.75;;
53959;SDS011;39866;48.638;-2.020;2023-03-13T03:59:30;5.93;;;2.10;;
53959;SDS011;39866;48.638;-2.020;2023-03-13T04:01:55;5.13;;;2.00;;
53959;SDS011;39866;48.638;-2.020;2023-03-13T04:04:21;6.38;;;2.30;;
53959;SDS011;39866;48.638;-2.020;2023-03-13T04:06:46;6.57;;;2.30;;
53959;SDS011;39866;48.638;-2.020;2023-03-13T04:09:11;4.63;;;2.05;;
53959;SDS011;39866;48.638;-2.020;2023-03-13T04:11:37;7.03;;;2.33;;
53959;SDS011;39866;48.638;-2.020;2023-03-13T04:14:02;6.40;;;2.58;;
53959;SDS011;39866;48.638;-2.020;2023-03-13T04:16:27;7.03;;;2.58;;
53959;SDS011;39866;48.638;-2.020;2023-03-13T04:18:53;7.22;;;2.40;;
53959;SDS011;39866;48.638;-2.020;2023-03-13T04:21:18;7.32;;;2.80;;
53959;SDS011;39866;48.638;-2.020;2023-03-13T04:23:44;6.20;;;2.50;;
53959;SDS011;39866;48.638;-2.020;2023-03-13T04:26:09;4.90;;;2.47;;
53959;SDS011;39866;48.638;-2.020;2023-03-13T04:28:34;7.32;;;2.83;;
53959;SDS011;39866;48.638;-2.020;2023-03-13T04:31:00;7.28;;;2.58;;
53959;SDS011;39866;48.638;-2.020;2023-03-13T04:33:25;9.50;;;3.00;;
53959;SDS011;39866;48.638;-2.020;2023-03-13T04:35:51;9.70;;;3.00;;
53959;SDS011;39866;48.638;-2.020;2023-03-13T04:38:16;10.32;;;3.20;;
53959;SDS011;39866;48.638;-2.020;2023-03-13T04:40:42;10.23;;;3.30;;
53959;SDS011;39866;48.638;-2.020;2023-03-13T04:43:07;12.32;;;3.63;;
53959;SDS011;39866;48.638;-2.020;2023-03-13T04:45:33;11.60;;;3.55;;
53959;SDS011;39866;48.638;-2.020;2023-03-13T04:47:59;12.25;;;4.00;;
53959;SDS011;39866;48.638;-2.020;2023-03-13T04:50:24;11.40;;;4.13;;
53959;SDS011;39866;48.638;-2.020;2023-03-13T04:52:49;16.55;;;4.40;;
53959;SDS011;39866;48.638;-2.020;2023-03-13T04:55:15;14.57;;;4.05;;
53959;SDS011;39866;48.638;-2.020;2023-03-13T04:57:41;15.27;;;4.32;;
53959;SDS011;39866;48.638;-2.020;2023-03-13T05:00:06;12.57;;;4.05;;
53959;SDS011;39866;48.638;-2.020;2023-03-13T05:02:34;13.68;;;4.28;;
53959;SDS011;39866;48.638;-2.020;2023-03-13T05:04:59;14.30;;;4.60;;
53959;SDS011;39866;48.638;-2.020;2023-03-13T05:07:25;17.23;;;4.32;;
53959;SDS011;39866;48.638;-2.020;2023-03-13T05:09:50;18.50;;;4.32;;
53959;SDS011;39866;48.638;-2.020;2023-03-13T05:12:15;14.23;;;4.40;;
53959;SDS011;39866;48.638;-2.020;2023-03-13T05:14:41;15.32;;;4.30;;
53959;SDS011;39866;48.638;-2.020;2023-03-13T05:17:06;17.15;;;4.40;;
53959;SDS011;39866;48.638;-2.020;2023-03-13T05:19:31;20.10;;;5.47;;
53959;SDS011;39866;48.638;-2.020;2023-03-13T05:21:56;16.90;;;4.70;;
53959;SDS011;39866;48.638;-2.020;2023-03-13T05:24:22;17.40;;;4.60;;
53959;SDS011;39866;48.638;-2.020;2023-03-13T05:26:47;16.85;;;4.50;;
53959;SDS011;39866;48.638;-2.020;2023-03-13T05:29:12;19.60;;;5.38;;
53959;SDS011;39866;48.638;-2.020;2023-03-13T05:31:38;15.25;;;4.93;;
53959;SDS011;39866;48.638;-2.020;2023-03-13T05:34:03;19.25;;;5.05;;
53959;SDS011;39866;48.638;-2.020;2023-03-13T05:36:28;19.58;;;5.40;;
53959;SDS011;39866;48.638;-2.020;2023-03-13T05:38:54;18.48;;;4.93;;
53959;SDS011;39866;48.638;-2.020;2023-03-13T05:41:19;16.75;;;5.57;;
53959;SDS011;39866;48.638;-2.020;2023-03-13T05:43:44;18.88;;;5.22;;
53959;SDS011;39866;48.638;-2.020;2023-03-13T05:46:10;15.80;;;5.05;;
53959;SDS011;39866;48.638;-2.020;2023-03-13T05:48:35;17.75;;;5.05;;
53959;SDS011;39866;48.638;-2.020;2023-03-13T05:51:00;17.90;;;5.13;;
53959;SDS011;39866;48.638;-2.020;2023-03-13T05:53:26;17.35;;;5.00;;
53959;SDS011;39866;48.638;-2.020;2023-03-13T05:55:51;20.40;;;5.50;;
53959;SDS011;39866;48.638;-2.020;2023-03-13T05:58:16;20.77;;;5.13;;
53959;SDS011;39866;48.638;-2.020;2023-03-13T06:00:42;17.30;;;5.00;;
53959;SDS011;39866;48.638;-2.020;2023-03-13T06:03:08;17.80;;;5.13;;
53959;SDS011;39866;48.638;-2.020;2023-03-13T06:05:33;25.02;;;5.70;;
53959;SDS011;39866;48.638;-2.020;2023-03-13T06:08:00;25.95;;;6.10;;
53959;SDS011;39866;48.638;-2.020;2023-03-13T06:10:27;24.98;;;5.60;;
53959;SDS011;39866;48.638;-2.020;2023-03-13T06:12:55;21.90;;;5.68;;
53959;SDS011;39866;48.638;-2.020;2023-03-13T06:15:21;33.00;;;6.85;;
53959;SDS011;39866;48.638;-2.020;2023-03-13T06:17:47;24.20;;;5.93;;
53959;SDS011;39866;48.638;-2.020;2023-03-13T06:20:13;23.55;;;5.57;;
53959;SDS011;39866;48.638;-2.020;2023-03-13T06:22:39;26.38;;;5.93;;
53959;SDS011;39866;48.638;-2.020;2023-03-13T06:25:05;27.67;;;6.57;;
53959;SDS011;39866;48.638;-2.020;2023-03-13T06:27:30;26.50;;;6.65;;
53959;SDS011;39866;48.638;-2.020;2023-03-13T06:29:56;28.08;;;6.80;;
53959;SDS011;39866;48.638;-2.020;2023-03-13T06:32:21;25.40;;;6.80;;
53959;SDS011;39866;48.638;-2.020;2023-03-13T06:34:46;23.08;;;7.07;;
53959;SDS011;39866;48.638;-2.020;2023-03-13T06:37:12;25.70;;;6.10;;
53959;SDS011;39866;48.638;-2.020;2023-03-13T06:39:37;24.85;;;6.15;;
53959;SDS011;39866;48.638;-2.020;2023-03-13T06:42:03;25.98;;;6.15;;
53959;SDS011;39866;48.638;-2.020;2023-03-13T06:44:28;28.50;;;6.80;;
53959;SDS011;39866;48.638;-2.020;2023-03-13T06:46:53;27.50;;;6.63;;
53959;SDS011;39866;48.638;-2.020;2023-03-13T06:49:19;30.05;;;6.88;;
53959;SDS011;39866;48.638;-2.020;2023-03-13T06:51:44;28.48;;;7.15;;
53959;SDS011;39866;48.638;-2.020;2023-03-13T06:54:09;27.67;;;7.82;;
53959;SDS011;39866;48.638;-2.020;2023-03-13T06:56:35;29.60;;;7.03;;
53959;SDS011;39866;48.638;-2.020;2023-03-13T06:59:00;29.88;;;7.10;;
53959;SDS011;39866;48.638;-2.020;2023-03-13T07:01:26;24.80;;;6.82;;
53959;SDS011;39866;48.638;-2.020;2023-03-13T07:03:51;33.72;;;7.95;;
53959;SDS011;39866;48.638;-2.020;2023-03-13T07:06:17;29.70;;;7.32;;
53959;SDS011;39866;48.638;-2.020;2023-03-13T07:08:42;29.92;;;7.03;;
53959;SDS011;39866;48.638;-2.020;2023-03-13T07:11:09;27.75;;;7.07;;
53959;SDS011;39866;48.638;-2.020;2023-03-13T07:13:36;38.03;;;7.82;;
53959;SDS011;39866;48.638;-2.020;2023-03-13T07:16:02;31.63;;;7.10;;
53959;SDS011;39866;48.638;-2.020;2023-03-13T07:18:30;32.80;;;8.10;;
53959;SDS011;39866;48.638;-2.020;2023-03-13T07:20:56;26.92;;;6.93;;
53959;SDS011;39866;48.638;-2.020;2023-03-13T07:23:24;30.30;;;6.97;;
53959;SDS011;39866;48.638;-2.020;2023-03-13T07:25:55;33.55;;;8.25;;
53959;SDS011;39866;48.638;-2.020;2023-03-13T07:28:22;33.65;;;7.78;;
53959;SDS011;39866;48.638;-2.020;2023-03-13T07:30:49;36.83;;;8.60;;
53959;SDS011;39866;48.638;-2.020;2023-03-13T07:33:14;31.08;;;7.72;;
53959;SDS011;39866;48.638;-2.020;2023-03-13T07:35:46;36.83;;;8.35;;
53959;SDS011;39866;48.638;-2.020;2023-03-13T07:38:13;38.90;;;8.48;;
53959;SDS011;39866;48.638;-2.020;2023-03-13T07:40:38;37.70;;;8.13;;
53959;SDS011;39866;48.638;-2.020;2023-03-13T07:43:04;33.50;;;7.20;;
53959;SDS011;39866;48.638;-2.020;2023-03-13T07:45:29;33.35;;;7.05;;
53959;SDS011;39866;48.638;-2.020;2023-03-13T07:47:54;29.48;;;7.85;;
53959;SDS011;39866;48.638;-2.020;2023-03-13T07:50:20;32.13;;;7.13;;
53959;SDS011;39866;48.638;-2.020;2023-03-13T07:52:45;36.45;;;7.70;;
53959;SDS011;39866;48.638;-2.020;2023-03-13T07:55:10;37.53;;;7.43;;
53959;SDS011;39866;48.638;-2.020;2023-03-13T07:57:36;35.83;;;7.47;;
53959;SDS011;39866;48.638;-2.020;2023-03-13T08:00:01;31.55;;;7.25;;
53959;SDS011;39866;48.638;-2.020;2023-03-13T08:02:26;28.15;;;6.90;;
53959;SDS011;39866;48.638;-2.020;2023-03-13T08:04:52;29.10;;;6.47;;
53959;SDS011;39866;48.638;-2.020;2023-03-13T08:07:17;34.70;;;7.88;;
53959;SDS011;39866;48.638;-2.020;2023-03-13T08:09:43;30.80;;;7.93;;
53959;SDS011;39866;48.638;-2.020;2023-03-13T08:12:08;29.23;;;7.25;;
53959;SDS011;39866;48.638;-2.020;2023-03-13T08:14:33;32.47;;;7.20;;
53959;SDS011;39866;48.638;-2.020;2023-03-13T08:16:59;26.95;;;7.28;;
53959;SDS011;39866;48.638;-2.020;2023-03-13T08:19:24;34.47;;;8.20;;
53959;SDS011;39866;48.638;-2.020;2023-03-13T08:21:49;29.00;;;7.18;;
53959;SDS011;39866;48.638;-2.020;2023-03-13T08:24:15;27.35;;;6.88;;
53959;SDS011;39866;48.638;-2.020;2023-03-13T08:26:40;28.10;;;7.15;;
53959;SDS011;39866;48.638;-2.020;2023-03-13T08:29:07;32.92;;;7.50;;
53959;SDS011;39866;48.638;-2.020;2023-03-13T08:31:40;31.02;;;6.90;;
53959;SDS011;39866;48.638;-2.020;2023-03-13T08:34:07;35.85;;;7.65;;
53959;SDS011;39866;48.638;-2.020;2023-03-13T08:36:36;33.13;;;7.57;;
53959;SDS011;39866;48.638;-2.020;2023-03-13T08:39:06;35.97;;;7.57;;
53959;SDS011;39866;48.638;-2.020;2023-03-13T08:41:36;33.67;;;6.82;;
53959;SDS011;39866;48.638;-2.020;2023-03-13T08:44:04;32.33;;;7.30;;
53959;SDS011;39866;48.638;-2.020;2023-03-13T08:46:32;35.95;;;7.28;;
53959;SDS011;39866;48.638;-2.020;2023-03-13T08:49:00;32.05;;;7.45;;
53959;SDS011;39866;48.638;-2.020;2023-03-13T08:51:26;34.72;;;8.25;;
53959;SDS011;39866;48.638;-2.020;2023-03-13T08:53:52;28.80;;;7.38;;
53959;SDS011;39866;48.638;-2.020;2023-03-13T08:56:20;37.53;;;8.95;;
53959;SDS011;39866;48.638;-2.020;2023-03-13T08:58:55;34.13;;;8.43;;
53959;SDS011;39866;48.638;-2.020;2023-03-13T09:01:23;37.22;;;7.43;;
53959;SDS011;39866;48.638;-2.020;2023-03-13T09:03:50;36.63;;;7.82;;
53959;SDS011;39866;48.638;-2.020;2023-03-13T09:06:16;37.65;;;8.43;;
53959;SDS011;39866;48.638;-2.020;2023-03-13T09:08:42;37.17;;;8.50;;
53959;SDS011;39866;48.638;-2.020;2023-03-13T09:11:18;35.67;;;7.57;;
53959;SDS011;39866;48.638;-2.020;2023-03-13T09:13:45;37.75;;;8.32;;
53959;SDS011;39866;48.638;-2.020;2023-03-13T09:16:13;35.08;;;8.30;;
53959;SDS011;39866;48.638;-2.020;2023-03-13T09:18:40;35.85;;;7.93;;
53959;SDS011;39866;48.638;-2.020;2023-03-13T09:21:08;32.58;;;7.57;;
53959;SDS011;39866;48.638;-2.020;2023-03-13T09:23:36;34.95;;;7.55;;
53959;SDS011;39866;48.638;-2.020;2023-03-13T09:26:01;30.70;;;7.18;;
53959;SDS011;39866;48.638;-2.020;2023-03-13T09:28:27;37.47;;;8.18;;
53959;SDS011;39866;48.638;-2.020;2023-03-13T09:30:52;38.38;;;7.75;;
53959;SDS011;39866;48.638;-2.020;2023-03-13T09:33:18;30.02;;;7.70;;
53959;SDS011;39866;48.638;-2.020;2023-03-13T09:35:45;36.25;;;7.63;;
53959;SDS011;39866;48.638;-2.020;2023-03-13T09:38:17;36.15;;;7.57;;
53959;SDS011;39866;48.638;-2.020;2023-03-13T09:40:48;24.95;;;6.88;;
53959;SDS011;39866;48.638;-2.020;2023-03-13T09:43:36;40.42;;;9.18;;
53959;SDS011;39866;48.638;-2.020;2023-03-13T09:49:30;36.17;;;7.80;;
53959;SDS011;39866;48.638;-2.020;2023-03-13T09:54:45;39.28;;;7.47;;
53959;SDS011;39866;48.638;-2.020;2023-03-13T09:57:32;35.25;;;8.32;;
53959;SDS011;39866;48.638;-2.020;2023-03-13T10:00:01;38.83;;;7.70;;
53959;SDS011;39866;48.638;-2.020;2023-03-13T10:02:36;38.25;;;7.97;;
53959;SDS011;39866;48.638;-2.020;2023-03-13T10:07:33;30.67;;;7.75;;
53959;SDS011;39866;48.638;-2.020;2023-03-13T10:10:00;36.10;;;8.07;;
53959;SDS011;39866;48.638;-2.020;2023-03-13T10:12:27;34.05;;;7.95;;
53959;SDS011;39866;48.638;-2.020;2023-03-13T10:15:06;33.50;;;7.25;;
53959;SDS011;39866;48.638;-2.020;2023-03-13T10:17:47;34.67;;;8.90;;
53959;SDS011;39866;48.638;-2.020;2023-03-13T10:20:22;29.77;;;7.22;;
53959;SDS011;39866;48.638;-2.020;2023-03-13T10:23:04;36.22;;;7.75;;
53959;SDS011;39866;48.638;-2.020;2023-03-13T10:25:35;30.35;;;7.85;;
53959;SDS011;39866;48.638;-2.020;2023-03-13T10:28:05;36.97;;;7.03;;
53959;SDS011;39866;48.638;-2.020;2023-03-13T10:30:35;29.80;;;7.05;;
53959;SDS011;39866;48.638;-2.020;2023-03-13T10:35:35;31.42;;;7.38;;
53959;SDS011;39866;48.638;-2.020;2023-03-13T10:38:05;31.50;;;7.00;;
53959;SDS011;39866;48.638;-2.020;2023-03-13T10:40:35;32.15;;;7.22;;
53959;SDS011;39866;48.638;-2.020;2023-03-13T10:43:03;33.42;;;7.38;;
53959;SDS011;39866;48.638;-2.020;2023-03-13T10:45:31;41.50;;;8.15;;
53959;SDS011;39866;48.638;-2.020;2023-03-13T10:48:02;36.90;;;8.25;;
53959;SDS011;39866;48.638;-2.020;2023-03-13T10:50:35;31.83;;;7.05;;
53959;SDS011;39866;48.638;-2.020;2023-03-13T10:53:16;33.22;;;7.28;;
53959;SDS011;39866;48.638;-2.020;2023-03-13T10:55:46;29.50;;;7.00;;
53959;SDS011;39866;48.638;-2.020;2023-03-13T10:58:19;38.80;;;7.97;;
53959;SDS011;39866;48.638;-2.020;2023-03-13T11:00:49;38.85;;;7.40;;
53959;SDS011;39866;48.638;-2.020;2023-03-13T11:05:59;37.53;;;7.30;;
53959;SDS011;39866;48.638;-2.020;2023-03-13T11:08:27;34.35;;;7.90;;
53959;SDS011;39866;48.638;-2.020;2023-03-13T11:11:05;34.88;;;7.60;;
53959;SDS011;39866;48.638;-2.020;2023-03-13T11:13:42;36.63;;;7.75;;
53959;SDS011;39866;48.638;-2.020;2023-03-13T11:16:18;30.70;;;7.68;;
53959;SDS011;39866;48.638;-2.020;2023-03-13T11:21:22;29.50;;;7.22;;
53959;SDS011;39866;48.638;-2.020;2023-03-13T11:23:57;34.75;;;7.57;;
53959;SDS011;39866;48.638;-2.020;2023-03-13T11:26:35;37.20;;;7.65;;
53959;SDS011;39866;48.638;-2.020;2023-03-13T11:32:04;33.15;;;7.07;;
53959;SDS011;39866;48.638;-2.020;2023-03-13T11:34:45;34.53;;;6.88;;
53959;SDS011;39866;48.638;-2.020;2023-03-13T11:37:16;29.92;;;6.70;;
53959;SDS011;39866;48.638;-2.020;2023-03-13T11:48:18;30.40;;;7.72;;
53959;SDS011;39866;48.638;-2.020;2023-03-13T11:50:50;29.20;;;6.57;;
53959;SDS011;39866;48.638;-2.020;2023-03-13T11:59:17;26.48;;;6.25;;
53959;SDS011;39866;48.638;-2.020;2023-03-13T12:05:08;27.60;;;6.20;;
53959;SDS011;39866;48.638;-2.020;2023-03-13T12:07:38;26.95;;;6.65;;
53959;SDS011;39866;48.638;-2.020;2023-03-13T12:10:20;28.20;;;7.32;;
53959;SDS011;39866;48.638;-2.020;2023-03-13T12:15:48;30.83;;;7.78;;
53959;SDS011;39866;48.638;-2.020;2023-03-13T12:20:52;27.67;;;6.78;;
53959;SDS011;39866;48.638;-2.020;2023-03-13T12:25:50;26.23;;;7.05;;
53959;SDS011;39866;48.638;-2.020;2023-03-13T12:34:12;26.13;;;6.38;;
53959;SDS011;39866;48.638;-2.020;2023-03-13T12:36:47;26.52;;;5.88;;
53959;SDS011;39866;48.638;-2.020;2023-03-13T12:44:32;25.52;;;5.70;;
53959;SDS011;39866;48.638;-2.020;2023-03-13T12:50:00;26.75;;;6.13;;
53959;SDS011;39866;48.638;-2.020;2023-03-13T12:52:40;20.97;;;5.50;;
53959;SDS011;39866;48.638;-2.020;2023-03-13T12:58:11;21.40;;;5.65;;
53959;SDS011;39866;48.638;-2.020;2023-03-13T13:00:53;23.42;;;6.05;;
53959;SDS011;39866;48.638;-2.020;2023-03-13T13:08:40;26.27;;;6.15;;
53959;SDS011;39866;48.638;-2.020;2023-03-13T13:13:58;27.15;;;6.03;;
53959;SDS011;39866;48.638;-2.020;2023-03-13T13:16:29;24.05;;;6.30;;
53959;SDS011;39866;48.638;-2.020;2023-03-13T13:19:19;26.48;;;5.82;;
53959;SDS011;39866;48.638;-2.020;2023-03-13T13:25:01;24.30;;;5.60;;
53959;SDS011;39866;48.638;-2.020;2023-03-13T13:27:54;28.42;;;6.43;;
53959;SDS011;39866;48.638;-2.020;2023-03-13T13:38:19;26.30;;;6.32;;
53959;SDS011;39866;48.638;-2.020;2023-03-13T13:40:42;25.13;;;5.80;;
53959;SDS011;39866;48.638;-2.020;2023-03-13T13:46:01;27.55;;;6.03;;
53959;SDS011;39866;48.638;-2.020;2023-03-13T13:59:00;29.70;;;6.38;;
53959;SDS011;39866;48.638;-2.020;2023-03-13T14:01:44;27.33;;;6.80;;
53959;SDS011;39866;48.638;-2.020;2023-03-13T14:04:32;26.95;;;6.30;;
53959;SDS011;39866;48.638;-2.020;2023-03-13T14:07:02;30.77;;;7.05;;
53959;SDS011;39866;48.638;-2.020;2023-03-13T14:17:37;32.60;;;6.82;;
53959;SDS011;39866;48.638;-2.020;2023-03-13T14:20:04;24.50;;;6.00;;
53959;SDS011;39866;48.638;-2.020;2023-03-13T14:22:46;32.63;;;6.82;;
53959;SDS011;39866;48.638;-2.020;2023-03-13T14:25:13;28.75;;;6.50;;
53959;SDS011;39866;48.638;-2.020;2023-03-13T14:27:42;28.20;;;6.22;;
53959;SDS011;39866;48.638;-2.020;2023-03-13T14:30:08;27.52;;;5.78;;
53959;SDS011;39866;48.638;-2.020;2023-03-13T14:32:34;21.88;;;5.47;;
53959;SDS011;39866;48.638;-2.020;2023-03-13T14:35:01;20.52;;;5.53;;
53959;SDS011;39866;48.638;-2.020;2023-03-13T14:37:35;25.73;;;5.85;;
53959;SDS011;39866;48.638;-2.020;2023-03-13T14:42:48;24.48;;;5.63;;
53959;SDS011;39866;48.638;-2.020;2023-03-13T14:45:29;25.05;;;5.80;;
53959;SDS011;39866;48.638;-2.020;2023-03-13T14:48:00;31.83;;;6.50;;
53959;SDS011;39866;48.638;-2.020;2023-03-13T14:50:28;30.50;;;6.70;;
53959;SDS011;39866;48.638;-2.020;2023-03-13T14:52:54;32.13;;;7.80;;
53959;SDS011;39866;48.638;-2.020;2023-03-13T14:55:41;32.05;;;6.43;;
53959;SDS011;39866;48.638;-2.020;2023-03-13T15:00:43;27.95;;;6.78;;
53959;SDS011;39866;48.638;-2.020;2023-03-13T15:05:41;33.30;;;7.07;;
53959;SDS011;39866;48.638;-2.020;2023-03-13T15:08:14;31.27;;;7.53;;
53959;SDS011;39866;48.638;-2.020;2023-03-13T15:10:42;29.35;;;6.25;;
53959;SDS011;39866;48.638;-2.020;2023-03-13T15:15:56;28.08;;;6.57;;
53959;SDS011;39866;48.638;-2.020;2023-03-13T15:18:25;29.40;;;6.32;;
53959;SDS011;39866;48.638;-2.020;2023-03-13T15:20:56;26.00;;;5.93;;
53959;SDS011;39866;48.638;-2.020;2023-03-13T15:23:34;29.85;;;6.70;;
53959;SDS011;39866;48.638;-2.020;2023-03-13T15:25:59;46.72;;;7.68;;
53959;SDS011;39866;48.638;-2.020;2023-03-13T15:28:25;38.17;;;7.47;;
53959;SDS011;39866;48.638;-2.020;2023-03-13T15:30:50;41.88;;;6.90;;
53959;SDS011;39866;48.638;-2.020;2023-03-13T15:33:17;32.80;;;7.95;;
53959;SDS011;39866;48.638;-2.020;2023-03-13T15:35:45;28.98;;;5.57;;
53959;SDS011;39866;48.638;-2.020;2023-03-13T15:38:32;27.50;;;5.45;;
53959;SDS011;39866;48.638;-2.020;2023-03-13T15:40:56;22.98;;;4.35;;
53959;SDS011;39866;48.638;-2.020;2023-03-13T15:43:22;20.55;;;3.90;;
53959;SDS011;39866;48.638;-2.020;2023-03-13T15:45:48;16.55;;;3.58;;
53959;SDS011;39866;48.638;-2.020;2023-03-13T15:48:21;12.48;;;2.92;;
53959;SDS011;39866;48.638;-2.020;2023-03-13T15:50:55;10.57;;;3.20;;
53959;SDS011;39866;48.638;-2.020;2023-03-13T15:55:50;11.98;;;2.78;;
53959;SDS011;39866;48.638;-2.020;2023-03-13T15:58:17;11.07;;;2.88;;
53959;SDS011;39866;48.638;-2.020;2023-03-13T16:00:42;14.93;;;3.08;;
53959;SDS011;39866;48.638;-2.020;2023-03-13T16:03:16;9.23;;;2.40;;
53959;SDS011;39866;48.638;-2.020;2023-03-13T16:05:45;10.77;;;2.75;;
53959;SDS011;39866;48.638;-2.020;2023-03-13T16:08:22;11.77;;;2.65;;
53959;SDS011;39866;48.638;-2.020;2023-03-13T16:10:49;13.90;;;3.25;;
53959;SDS011;39866;48.638;-2.020;2023-03-13T16:13:15;12.40;;;2.90;;
53959;SDS011;39866;48.638;-2.020;2023-03-13T16:15:41;14.13;;;3.38;;
53959;SDS011;39866;48.638;-2.020;2023-03-13T16:18:08;17.10;;;4.00;;
53959;SDS011;39866;48.638;-2.020;2023-03-13T16:20:39;18.58;;;4.38;;
53959;SDS011;39866;48.638;-2.020;2023-03-13T16:23:05;18.83;;;4.68;;
53959;SDS011;39866;48.638;-2.020;2023-03-13T16:25:30;21.05;;;4.10;;
53959;SDS011;39866;48.638;-2.020;2023-03-13T16:27:56;20.50;;;4.45;;
53959;SDS011;39866;48.638;-2.020;2023-03-13T16:30:25;22.75;;;4.20;;